sensor_id;sensor_type;location;lat;lon;timestamp;pressure;altitude;pressure_sealevel;temperature;humidity
11525;BME280;5819;49.648;8.330;2023-06-04T00:00:05;100524.72;;;15.87;53.83
11525;BME280;5819;49.648;8.330;2023-06-04T00:02:37;100525.94;;;15.96;54.26
11525;BME280;5819;49.648;8.330;2023-06-04T00:05:08;100524.97;;;15.97;53.99
11525;BME280;5819;49.648;8.330;2023-06-04T00:07:38;100525.59;;;16.29;53.08
11525;BME280;5819;49.648;8.330;2023-06-04T00:10:09;100526.50;;;15.87;53.98
11525;BME280;5819;49.648;8.330;2023-06-04T00:12:37;100518.94;;;15.68;54.67
11525;BME280;5819;49.648;8.330;2023-06-04T00:15:06;100520.50;;;15.71;54.40
11525;BME280;5819;49.648;8.330;2023-06-04T00:17:34;100520.59;;;15.55;55.07
11525;BME280;5819;49.648;8.330;2023-06-04T00:20:05;100515.84;;;15.46;54.60
11525;BME280;5819;49.648;8.330;2023-06-04T00:22:34;100521.09;;;15.46;54.92
11525;BME280;5819;49.648;8.330;2023-06-04T00:25:03;100521.09;;;15.32;55.08
11525;BME280;5819;49.648;8.330;2023-06-04T00:27:31;100523.50;;;15.51;54.86
11525;BME280;5819;49.648;8.330;2023-06-04T00:29:59;100527.53;;;15.56;54.56
11525;BME280;5819;49.648;8.330;2023-06-04T00:32:27;100518.81;;;15.26;55.09
11525;BME280;5819;49.648;8.330;2023-06-04T00:34:56;100521.72;;;15.51;55.22
11525;BME280;5819;49.648;8.330;2023-06-04T00:37:25;100521.84;;;15.34;55.61
11525;BME280;5819;49.648;8.330;2023-06-04T00:39:55;100525.16;;;15.08;56.03
11525;BME280;5819;49.648;8.330;2023-06-04T00:42:27;100519.97;;;15.36;55.51
11525;BME280;5819;49.648;8.330;2023-06-04T00:44:59;100528.91;;;15.18;55.48
11525;BME280;5819;49.648;8.330;2023-06-04T00:47:30;100521.44;;;15.26;54.93
11525;BME280;5819;49.648;8.330;2023-06-04T00:49:59;100528.19;;;15.30;55.11
11525;BME280;5819;49.648;8.330;2023-06-04T00:52:28;100524.84;;;15.28;54.77
11525;BME280;5819;49.648;8.330;2023-06-04T00:55:02;100524.34;;;15.65;53.78
11525;BME280;5819;49.648;8.330;2023-06-04T00:57:31;100533.22;;;15.49;54.21
11525;BME280;5819;49.648;8.330;2023-06-04T00:59:59;100527.72;;;15.23;54.31
11525;BME280;5819;49.648;8.330;2023-06-04T01:02:28;100529.09;;;15.15;55.03
11525;BME280;5819;49.648;8.330;2023-06-04T01:05:03;100532.97;;;15.23;54.68
11525;BME280;5819;49.648;8.330;2023-06-04T01:07:37;100535.00;;;15.18;54.49
11525;BME280;5819;49.648;8.330;2023-06-04T01:10:09;100537.34;;;15.23;54.83
11525;BME280;5819;49.648;8.330;2023-06-04T01:12:40;100539.00;;;15.10;54.37
11525;BME280;5819;49.648;8.330;2023-06-04T01:15:11;100536.97;;;15.15;54.35
11525;BME280;5819;49.648;8.330;2023-06-04T01:17:42;100542.91;;;15.03;54.79
11525;BME280;5819;49.648;8.330;2023-06-04T01:20:22;100540.69;;;15.11;54.94
11525;BME280;5819;49.648;8.330;2023-06-04T01:23:19;100539.75;;;15.12;54.98
11525;BME280;5819;49.648;8.330;2023-06-04T01:25:52;100540.72;;;15.25;54.27
11525;BME280;5819;49.648;8.330;2023-06-04T01:28:21;100537.34;;;15.23;54.68
11525;BME280;5819;49.648;8.330;2023-06-04T01:30:52;100536.47;;;15.08;53.95
11525;BME280;5819;49.648;8.330;2023-06-04T01:33:23;100543.53;;;15.22;53.86
11525;BME280;5819;49.648;8.330;2023-06-04T01:35:52;100543.56;;;15.06;54.39
11525;BME280;5819;49.648;8.330;2023-06-04T01:38:21;100542.44;;;14.96;55.08
11525;BME280;5819;49.648;8.330;2023-06-04T01:40:52;100535.13;;;15.01;54.58
11525;BME280;5819;49.648;8.330;2023-06-04T01:43:23;100539.28;;;14.89;54.91
11525;BME280;5819;49.648;8.330;2023-06-04T01:45:53;100550.81;;;14.71;55.56
11525;BME280;5819;49.648;8.330;2023-06-04T01:48:23;100546.94;;;14.63;56.07
11525;BME280;5819;49.648;8.330;2023-06-04T01:50:54;100545.19;;;14.63;55.60
11525;BME280;5819;49.648;8.330;2023-06-04T01:53:25;100546.88;;;14.64;55.56
11525;BME280;5819;49.648;8.330;2023-06-04T01:55:56;100551.00;;;14.68;55.26
11525;BME280;5819;49.648;8.330;2023-06-04T01:58:25;100550.81;;;14.71;55.22
11525;BME280;5819;49.648;8.330;2023-06-04T02:00:55;100556.31;;;14.67;55.43
11525;BME280;5819;49.648;8.330;2023-06-04T02:03:27;100553.53;;;14.54;55.63
11525;BME280;5819;49.648;8.330;2023-06-04T02:05:59;100551.34;;;14.46;55.57
11525;BME280;5819;49.648;8.330;2023-06-04T02:08:27;100547.84;;;14.30;56.26
11525;BME280;5819;49.648;8.330;2023-06-04T02:10:58;100554.59;;;14.34;56.26
11525;BME280;5819;49.648;8.330;2023-06-04T02:13:26;100553.88;;;14.48;56.23
11525;BME280;5819;49.648;8.330;2023-06-04T02:15:54;100544.44;;;14.28;56.14
11525;BME280;5819;49.648;8.330;2023-06-04T02:18:22;100551.28;;;14.48;55.89
11525;BME280;5819;49.648;8.330;2023-06-04T02:20:51;100551.59;;;14.42;55.84
11525;BME280;5819;49.648;8.330;2023-06-04T02:23:19;100553.19;;;14.44;55.99
11525;BME280;5819;49.648;8.330;2023-06-04T02:25:48;100562.25;;;14.22;56.51
11525;BME280;5819;49.648;8.330;2023-06-04T02:28:17;100550.88;;;14.23;56.83
11525;BME280;5819;49.648;8.330;2023-06-04T02:30:46;100562.19;;;14.23;56.37
11525;BME280;5819;49.648;8.330;2023-06-04T02:33:15;100556.84;;;14.25;56.19
11525;BME280;5819;49.648;8.330;2023-06-04T02:35:44;100559.91;;;14.33;56.41
11525;BME280;5819;49.648;8.330;2023-06-04T02:38:12;100560.06;;;14.14;56.72
11525;BME280;5819;49.648;8.330;2023-06-04T02:40:41;100565.88;;;14.03;57.18
11525;BME280;5819;49.648;8.330;2023-06-04T02:43:10;100562.81;;;13.95;57.17
11525;BME280;5819;49.648;8.330;2023-06-04T02:45:39;100562.97;;;13.92;57.36
11525;BME280;5819;49.648;8.330;2023-06-04T02:48:08;100562.22;;;13.90;57.57
11525;BME280;5819;49.648;8.330;2023-06-04T02:50:36;100565.28;;;13.98;57.69
11525;BME280;5819;49.648;8.330;2023-06-04T02:53:04;100563.97;;;13.90;57.58
11525;BME280;5819;49.648;8.330;2023-06-04T02:55:32;100556.78;;;13.78;58.53
11525;BME280;5819;49.648;8.330;2023-06-04T02:58:00;100572.53;;;13.76;57.70
11525;BME280;5819;49.648;8.330;2023-06-04T03:00:29;100572.06;;;13.85;58.21
11525;BME280;5819;49.648;8.330;2023-06-04T03:02:59;100570.97;;;13.89;57.41
11525;BME280;5819;49.648;8.330;2023-06-04T03:05:29;100570.13;;;13.89;57.33
11525;BME280;5819;49.648;8.330;2023-06-04T03:08:00;100565.41;;;13.80;57.66
11525;BME280;5819;49.648;8.330;2023-06-04T03:10:29;100570.09;;;13.73;58.39
11525;BME280;5819;49.648;8.330;2023-06-04T03:12:58;100572.06;;;13.85;57.86
11525;BME280;5819;49.648;8.330;2023-06-04T03:15:25;100572.81;;;13.72;58.20
11525;BME280;5819;49.648;8.330;2023-06-04T03:17:53;100575.75;;;13.81;58.08
11525;BME280;5819;49.648;8.330;2023-06-04T03:20:22;100581.72;;;13.68;58.29
11525;BME280;5819;49.648;8.330;2023-06-04T03:22:52;100577.03;;;13.57;58.32
11525;BME280;5819;49.648;8.330;2023-06-04T03:25:20;100581.19;;;13.61;58.47
11525;BME280;5819;49.648;8.330;2023-06-04T03:27:48;100583.50;;;13.50;59.05
11525;BME280;5819;49.648;8.330;2023-06-04T03:30:16;100581.41;;;13.56;59.27
11525;BME280;5819;49.648;8.330;2023-06-04T03:32:56;100577.56;;;13.64;58.63
11525;BME280;5819;49.648;8.330;2023-06-04T03:35:25;100582.94;;;13.60;58.94
11525;BME280;5819;49.648;8.330;2023-06-04T03:37:53;100579.97;;;13.51;59.21
11525;BME280;5819;49.648;8.330;2023-06-04T03:40:21;100575.13;;;13.43;59.30
11525;BME280;5819;49.648;8.330;2023-06-04T03:42:49;100573.56;;;13.56;58.90
11525;BME280;5819;49.648;8.330;2023-06-04T03:45:19;100573.72;;;13.53;59.18
11525;BME280;5819;49.648;8.330;2023-06-04T03:47:48;100576.22;;;13.39;59.74
11525;BME280;5819;49.648;8.330;2023-06-04T03:50:17;100574.81;;;13.32;60.19
11525;BME280;5819;49.648;8.330;2023-06-04T03:52:48;100576.88;;;13.26;60.59
11525;BME280;5819;49.648;8.330;2023-06-04T03:55:17;100578.66;;;13.42;59.77
11525;BME280;5819;49.648;8.330;2023-06-04T03:57:48;100584.75;;;13.43;60.28
11525;BME280;5819;49.648;8.330;2023-06-04T04:00:17;100585.44;;;13.46;59.68
11525;BME280;5819;49.648;8.330;2023-06-04T04:02:50;100575.50;;;13.53;59.74
11525;BME280;5819;49.648;8.330;2023-06-04T04:05:25;100583.44;;;13.51;60.03
11525;BME280;5819;49.648;8.330;2023-06-04T04:07:54;100590.72;;;13.45;60.01
11525;BME280;5819;49.648;8.330;2023-06-04T04:10:27;100590.25;;;13.37;60.46
11525;BME280;5819;49.648;8.330;2023-06-04T04:12:55;100588.16;;;13.60;59.85
11525;BME280;5819;49.648;8.330;2023-06-04T04:15:28;100575.88;;;13.80;59.34
11525;BME280;5819;49.648;8.330;2023-06-04T04:17:56;100583.31;;;13.87;58.84
11525;BME280;5819;49.648;8.330;2023-06-04T04:20:25;100584.34;;;13.68;59.88
11525;BME280;5819;49.648;8.330;2023-06-04T04:23:00;100588.44;;;13.56;60.32
11525;BME280;5819;49.648;8.330;2023-06-04T04:25:29;100590.78;;;13.78;59.41
11525;BME280;5819;49.648;8.330;2023-06-04T04:28:01;100595.88;;;13.64;60.88
11525;BME280;5819;49.648;8.330;2023-06-04T04:30:33;100595.94;;;13.62;60.60
11525;BME280;5819;49.648;8.330;2023-06-04T04:33:03;100590.19;;;13.88;59.94
11525;BME280;5819;49.648;8.330;2023-06-04T04:35:39;100588.81;;;13.98;60.41
11525;BME280;5819;49.648;8.330;2023-06-04T04:38:10;100590.56;;;14.31;58.78
11525;BME280;5819;49.648;8.330;2023-06-04T04:40:46;100596.09;;;14.25;59.65
11525;BME280;5819;49.648;8.330;2023-06-04T04:43:15;100589.44;;;14.52;58.84
11525;BME280;5819;49.648;8.330;2023-06-04T04:45:43;100585.97;;;14.51;59.23
11525;BME280;5819;49.648;8.330;2023-06-04T04:48:12;100586.06;;;14.33;59.62
11525;BME280;5819;49.648;8.330;2023-06-04T04:50:39;100585.72;;;14.56;59.77
11525;BME280;5819;49.648;8.330;2023-06-04T04:53:07;100591.88;;;14.39;59.61
11525;BME280;5819;49.648;8.330;2023-06-04T04:55:38;100590.34;;;14.35;59.12
11525;BME280;5819;49.648;8.330;2023-06-04T04:58:07;100590.84;;;14.58;58.86
11525;BME280;5819;49.648;8.330;2023-06-04T05:00:36;100590.59;;;14.78;58.02
11525;BME280;5819;49.648;8.330;2023-06-04T05:03:04;100597.28;;;14.52;59.19
11525;BME280;5819;49.648;8.330;2023-06-04T05:05:32;100593.47;;;14.58;59.04
11525;BME280;5819;49.648;8.330;2023-06-04T05:08:04;100591.03;;;14.55;59.88
11525;BME280;5819;49.648;8.330;2023-06-04T05:10:38;100597.28;;;14.68;59.31
11525;BME280;5819;49.648;8.330;2023-06-04T05:13:08;100594.50;;;14.71;59.26
11525;BME280;5819;49.648;8.330;2023-06-04T05:15:44;100602.28;;;14.72;59.82
11525;BME280;5819;49.648;8.330;2023-06-04T05:18:17;100605.88;;;14.85;59.66
11525;BME280;5819;49.648;8.330;2023-06-04T05:20:48;100607.31;;;14.91;59.23
11525;BME280;5819;49.648;8.330;2023-06-04T05:23:18;100612.31;;;14.95;58.63
11525;BME280;5819;49.648;8.330;2023-06-04T05:25:49;100609.75;;;15.10;58.64
11525;BME280;5819;49.648;8.330;2023-06-04T05:28:19;100599.75;;;15.46;56.93
11525;BME280;5819;49.648;8.330;2023-06-04T05:30:52;100613.25;;;15.40;57.57
11525;BME280;5819;49.648;8.330;2023-06-04T05:33:31;100608.16;;;15.53;57.30
11525;BME280;5819;49.648;8.330;2023-06-04T05:36:04;100606.03;;;15.73;57.24
11525;BME280;5819;49.648;8.330;2023-06-04T05:38:39;100603.44;;;16.16;55.83
11525;BME280;5819;49.648;8.330;2023-06-04T05:41:11;100607.81;;;16.29;55.34
11525;BME280;5819;49.648;8.330;2023-06-04T05:43:40;100604.00;;;16.07;55.44
11525;BME280;5819;49.648;8.330;2023-06-04T05:46:12;100611.13;;;15.90;55.58
11525;BME280;5819;49.648;8.330;2023-06-04T05:48:42;100605.78;;;16.34;55.23
11525;BME280;5819;49.648;8.330;2023-06-04T05:51:10;100605.56;;;16.66;53.83
11525;BME280;5819;49.648;8.330;2023-06-04T05:53:39;100598.28;;;17.10;53.81
11525;BME280;5819;49.648;8.330;2023-06-04T05:56:07;100606.22;;;17.23;52.21
11525;BME280;5819;49.648;8.330;2023-06-04T05:58:36;100599.44;;;17.33;51.32
11525;BME280;5819;49.648;8.330;2023-06-04T06:01:06;100617.31;;;17.14;52.57
11525;BME280;5819;49.648;8.330;2023-06-04T06:03:34;100613.22;;;17.10;52.72
11525;BME280;5819;49.648;8.330;2023-06-04T06:06:03;100615.00;;;16.82;53.74
11525;BME280;5819;49.648;8.330;2023-06-04T06:08:32;100623.16;;;16.78;54.77
11525;BME280;5819;49.648;8.330;2023-06-04T06:11:00;100624.06;;;16.64;55.18
11525;BME280;5819;49.648;8.330;2023-06-04T06:13:36;100625.56;;;16.68;54.17
11525;BME280;5819;49.648;8.330;2023-06-04T06:16:06;100629.38;;;16.77;54.56
11525;BME280;5819;49.648;8.330;2023-06-04T06:18:35;100629.69;;;16.72;54.23
11525;BME280;5819;49.648;8.330;2023-06-04T06:21:03;100627.81;;;16.32;55.92
11525;BME280;5819;49.648;8.330;2023-06-04T06:23:32;100629.81;;;16.57;54.86
11525;BME280;5819;49.648;8.330;2023-06-04T06:26:01;100637.19;;;16.36;56.05
11525;BME280;5819;49.648;8.330;2023-06-04T06:28:33;100643.19;;;15.96;56.29
11525;BME280;5819;49.648;8.330;2023-06-04T06:31:04;100637.75;;;15.99;56.81
11525;BME280;5819;49.648;8.330;2023-06-04T06:33:33;100639.03;;;15.91;56.91
11525;BME280;5819;49.648;8.330;2023-06-04T06:36:00;100643.47;;;16.19;56.55
11525;BME280;5819;49.648;8.330;2023-06-04T06:38:29;100649.09;;;16.27;55.98
11525;BME280;5819;49.648;8.330;2023-06-04T06:40:58;100647.69;;;16.50;55.70
11525;BME280;5819;49.648;8.330;2023-06-04T06:43:30;100650.31;;;16.50;56.38
11525;BME280;5819;49.648;8.330;2023-06-04T06:46:03;100652.47;;;16.58;55.57
11525;BME280;5819;49.648;8.330;2023-06-04T06:48:31;100654.09;;;16.60;55.34
11525;BME280;5819;49.648;8.330;2023-06-04T06:51:00;100651.13;;;16.79;55.68
11525;BME280;5819;49.648;8.330;2023-06-04T06:53:28;100645.69;;;16.82;55.59
11525;BME280;5819;49.648;8.330;2023-06-04T06:55:56;100646.19;;;17.01;56.09
11525;BME280;5819;49.648;8.330;2023-06-04T06:58:24;100649.66;;;17.02;54.67
11525;BME280;5819;49.648;8.330;2023-06-04T07:00:52;100649.50;;;17.17;54.20
11525;BME280;5819;49.648;8.330;2023-06-04T07:03:25;100644.16;;;17.19;55.19
11525;BME280;5819;49.648;8.330;2023-06-04T07:05:53;100645.41;;;17.13;53.19
11525;BME280;5819;49.648;8.330;2023-06-04T07:08:21;100640.13;;;17.67;53.06
11525;BME280;5819;49.648;8.330;2023-06-04T07:10:50;100640.78;;;17.44;52.92
11525;BME280;5819;49.648;8.330;2023-06-04T07:13:19;100645.50;;;17.78;53.66
11525;BME280;5819;49.648;8.330;2023-06-04T07:15:47;100645.94;;;17.85;52.98
11525;BME280;5819;49.648;8.330;2023-06-04T07:18:15;100642.88;;;17.91;52.08
11525;BME280;5819;49.648;8.330;2023-06-04T07:20:45;100639.09;;;18.20;51.53
11525;BME280;5819;49.648;8.330;2023-06-04T07:23:13;100638.75;;;18.62;50.73
11525;BME280;5819;49.648;8.330;2023-06-04T07:25:41;100641.09;;;18.29;51.59
11525;BME280;5819;49.648;8.330;2023-06-04T07:28:10;100636.34;;;18.59;51.23
11525;BME280;5819;49.648;8.330;2023-06-04T07:30:38;100634.56;;;18.22;52.12
11525;BME280;5819;49.648;8.330;2023-06-04T07:33:06;100637.19;;;18.60;51.56
11525;BME280;5819;49.648;8.330;2023-06-04T07:35:34;100629.81;;;18.89;49.74
11525;BME280;5819;49.648;8.330;2023-06-04T07:38:04;100626.00;;;18.93;50.50
11525;BME280;5819;49.648;8.330;2023-06-04T07:40:31;100621.91;;;19.12;50.17
11525;BME280;5819;49.648;8.330;2023-06-04T07:42:59;100622.81;;;19.24;50.44
11525;BME280;5819;49.648;8.330;2023-06-04T07:45:27;100619.44;;;19.46;49.90
11525;BME280;5819;49.648;8.330;2023-06-04T07:48:01;100622.22;;;19.32;48.04
11525;BME280;5819;49.648;8.330;2023-06-04T07:50:29;100618.63;;;19.45;48.95
11525;BME280;5819;49.648;8.330;2023-06-04T07:53:03;100615.09;;;19.80;46.87
11525;BME280;5819;49.648;8.330;2023-06-04T07:55:31;100614.91;;;19.48;47.91
11525;BME280;5819;49.648;8.330;2023-06-04T07:58:00;100618.56;;;19.80;46.89
11525;BME280;5819;49.648;8.330;2023-06-04T08:00:30;100621.22;;;19.91;47.98
11525;BME280;5819;49.648;8.330;2023-06-04T08:02:58;100620.53;;;20.12;46.97
11525;BME280;5819;49.648;8.330;2023-06-04T08:05:26;100615.31;;;20.34;45.29
11525;BME280;5819;49.648;8.330;2023-06-04T08:07:54;100624.97;;;20.22;46.44
11525;BME280;5819;49.648;8.330;2023-06-04T08:10:23;100618.00;;;20.10;46.28
11525;BME280;5819;49.648;8.330;2023-06-04T08:12:52;100625.09;;;20.21;46.97
11525;BME280;5819;49.648;8.330;2023-06-04T08:15:20;100614.31;;;20.35;45.98
11525;BME280;5819;49.648;8.330;2023-06-04T08:17:48;100614.91;;;20.05;46.74
11525;BME280;5819;49.648;8.330;2023-06-04T08:20:16;100617.28;;;19.97;47.50
11525;BME280;5819;49.648;8.330;2023-06-04T08:22:44;100608.63;;;20.06;47.38
11525;BME280;5819;49.648;8.330;2023-06-04T08:25:12;100614.28;;;20.24;47.40
11525;BME280;5819;49.648;8.330;2023-06-04T08:27:43;100611.31;;;20.39;46.14
11525;BME280;5819;49.648;8.330;2023-06-04T08:30:11;100600.09;;;20.80;46.66
11525;BME280;5819;49.648;8.330;2023-06-04T08:32:39;100602.84;;;21.11;45.95
11525;BME280;5819;49.648;8.330;2023-06-04T08:35:08;100595.13;;;21.30;44.78
11525;BME280;5819;49.648;8.330;2023-06-04T08:37:37;100597.47;;;21.65;42.73
11525;BME280;5819;49.648;8.330;2023-06-04T08:40:07;100597.28;;;21.57;44.11
11525;BME280;5819;49.648;8.330;2023-06-04T08:42:39;100605.88;;;21.70;43.53
11525;BME280;5819;49.648;8.330;2023-06-04T08:45:12;100596.75;;;22.04;43.55
11525;BME280;5819;49.648;8.330;2023-06-04T08:47:44;100590.91;;;22.40;43.49
11525;BME280;5819;49.648;8.330;2023-06-04T08:50:12;100597.47;;;22.86;42.68
11525;BME280;5819;49.648;8.330;2023-06-04T08:52:43;100592.53;;;22.72;41.82
11525;BME280;5819;49.648;8.330;2023-06-04T08:55:11;100590.19;;;22.88;41.78
11525;BME280;5819;49.648;8.330;2023-06-04T08:57:41;100592.59;;;23.20;41.17
11525;BME280;5819;49.648;8.330;2023-06-04T09:00:12;100583.25;;;23.45;39.36
11525;BME280;5819;49.648;8.330;2023-06-04T09:02:41;100590.78;;;23.49;39.69
11525;BME280;5819;49.648;8.330;2023-06-04T09:05:10;100586.88;;;23.44;39.17
11525;BME280;5819;49.648;8.330;2023-06-04T09:07:39;100590.97;;;23.94;41.03
11525;BME280;5819;49.648;8.330;2023-06-04T09:10:09;100592.84;;;24.11;39.17
11525;BME280;5819;49.648;8.330;2023-06-04T09:12:42;100585.78;;;24.02;39.51
11525;BME280;5819;49.648;8.330;2023-06-04T09:15:12;100587.41;;;23.57;40.21
11525;BME280;5819;49.648;8.330;2023-06-04T09:17:40;100600.16;;;23.15;39.71
11525;BME280;5819;49.648;8.330;2023-06-04T09:20:18;100601.16;;;22.64;40.82
11525;BME280;5819;49.648;8.330;2023-06-04T09:22:46;100597.88;;;22.42;41.48
11525;BME280;5819;49.648;8.330;2023-06-04T09:25:22;100598.56;;;22.44;41.66
11525;BME280;5819;49.648;8.330;2023-06-04T09:27:52;100608.63;;;22.10;42.27
11525;BME280;5819;49.648;8.330;2023-06-04T09:30:23;100597.38;;;22.17;41.88
11525;BME280;5819;49.648;8.330;2023-06-04T09:32:52;100590.84;;;22.71;41.56
11525;BME280;5819;49.648;8.330;2023-06-04T09:35:21;100603.44;;;22.69;41.47
11525;BME280;5819;49.648;8.330;2023-06-04T09:37:53;100587.97;;;23.60;39.96
11525;BME280;5819;49.648;8.330;2023-06-04T09:40:22;100585.31;;;23.41;41.07
11525;BME280;5819;49.648;8.330;2023-06-04T09:42:51;100574.44;;;23.44;40.42
11525;BME280;5819;49.648;8.330;2023-06-04T09:45:31;100583.63;;;23.11;40.91
11525;BME280;5819;49.648;8.330;2023-06-04T09:47:59;100582.09;;;24.22;40.46
11525;BME280;5819;49.648;8.330;2023-06-04T09:50:30;100550.34;;;26.56;36.65
11525;BME280;5819;49.648;8.330;2023-06-04T09:52:58;100552.84;;;26.58;35.70
11525;BME280;5819;49.648;8.330;2023-06-04T09:55:26;100541.66;;;28.08;34.23
11525;BME280;5819;49.648;8.330;2023-06-04T09:57:55;100535.19;;;28.95;32.80
11525;BME280;5819;49.648;8.330;2023-06-04T10:00:23;100531.56;;;29.48;32.14
11525;BME280;5819;49.648;8.330;2023-06-04T10:02:56;100548.41;;;27.79;33.02
11525;BME280;5819;49.648;8.330;2023-06-04T10:05:25;100573.19;;;25.22;36.67
11525;BME280;5819;49.648;8.330;2023-06-04T10:07:55;100588.72;;;24.36;38.75
11525;BME280;5819;49.648;8.330;2023-06-04T10:10:25;100587.41;;;24.13;40.24
11525;BME280;5819;49.648;8.330;2023-06-04T10:13:00;100579.81;;;25.00;39.07
11525;BME280;5819;49.648;8.330;2023-06-04T10:15:29;100574.91;;;24.78;39.19
11525;BME280;5819;49.648;8.330;2023-06-04T10:18:02;100560.22;;;25.88;36.97
11525;BME280;5819;49.648;8.330;2023-06-04T10:20:31;100537.19;;;28.39;33.42
11525;BME280;5819;49.648;8.330;2023-06-04T10:23:00;100519.78;;;30.51;30.03
11525;BME280;5819;49.648;8.330;2023-06-04T10:25:31;100506.91;;;31.94;28.49
11525;BME280;5819;49.648;8.330;2023-06-04T10:28:00;100501.38;;;32.49;27.20
11525;BME280;5819;49.648;8.330;2023-06-04T10:30:29;100514.69;;;32.71;26.47
11525;BME280;5819;49.648;8.330;2023-06-04T10:32:58;100503.13;;;33.49;26.17
11525;BME280;5819;49.648;8.330;2023-06-04T10:35:32;100502.28;;;33.62;25.41
11525;BME280;5819;49.648;8.330;2023-06-04T10:38:07;100511.63;;;33.00;27.36
11525;BME280;5819;49.648;8.330;2023-06-04T10:40:35;100520.19;;;31.95;27.53
11525;BME280;5819;49.648;8.330;2023-06-04T10:43:07;100520.91;;;31.48;27.17
11525;BME280;5819;49.648;8.330;2023-06-04T10:45:36;100524.75;;;30.69;28.09
11525;BME280;5819;49.648;8.330;2023-06-04T10:48:05;100520.97;;;29.84;27.73
11525;BME280;5819;49.648;8.330;2023-06-04T10:50:47;100551.97;;;27.07;32.69
11525;BME280;5819;49.648;8.330;2023-06-04T10:53:17;100551.88;;;26.59;32.08
11525;BME280;5819;49.648;8.330;2023-06-04T10:55:47;100542.28;;;27.06;32.97
11525;BME280;5819;49.648;8.330;2023-06-04T10:58:15;100550.56;;;26.79;33.19
11525;BME280;5819;49.648;8.330;2023-06-04T11:00:46;100532.94;;;27.34;32.03
11525;BME280;5819;49.648;8.330;2023-06-04T11:03:16;100532.31;;;28.04;31.46
11525;BME280;5819;49.648;8.330;2023-06-04T11:05:47;100513.25;;;29.66;29.04
11525;BME280;5819;49.648;8.330;2023-06-04T11:08:26;100511.69;;;30.87;29.17
11525;BME280;5819;49.648;8.330;2023-06-04T11:10:56;100499.13;;;31.09;27.37
11525;BME280;5819;49.648;8.330;2023-06-04T11:13:24;100491.53;;;31.19;25.93
11525;BME280;5819;49.648;8.330;2023-06-04T11:15:52;100503.50;;;30.74;27.18
11525;BME280;5819;49.648;8.330;2023-06-04T11:18:22;100487.91;;;32.56;26.01
11525;BME280;5819;49.648;8.330;2023-06-04T11:21:00;100481.31;;;33.57;24.12
11525;BME280;5819;49.648;8.330;2023-06-04T11:23:29;100498.59;;;33.36;25.90
11525;BME280;5819;49.648;8.330;2023-06-04T11:26:01;100491.94;;;33.46;24.79
11525;BME280;5819;49.648;8.330;2023-06-04T11:28:29;100490.22;;;33.77;24.40
11525;BME280;5819;49.648;8.330;2023-06-04T11:30:58;100485.28;;;33.48;24.34
11525;BME280;5819;49.648;8.330;2023-06-04T11:33:26;100478.53;;;33.97;24.29
11525;BME280;5819;49.648;8.330;2023-06-04T11:35:55;100467.22;;;34.19;23.22
11525;BME280;5819;49.648;8.330;2023-06-04T11:38:25;100469.63;;;33.83;23.84
11525;BME280;5819;49.648;8.330;2023-06-04T11:40:59;100469.31;;;34.11;24.34
11525;BME280;5819;49.648;8.330;2023-06-04T11:43:28;100472.44;;;34.08;24.39
11525;BME280;5819;49.648;8.330;2023-06-04T11:45:57;100472.56;;;34.33;23.43
11525;BME280;5819;49.648;8.330;2023-06-04T11:48:25;100473.00;;;34.29;23.74
11525;BME280;5819;49.648;8.330;2023-06-04T11:50:54;100467.69;;;34.03;23.76
11525;BME280;5819;49.648;8.330;2023-06-04T11:53:23;100476.78;;;32.72;24.87
11525;BME280;5819;49.648;8.330;2023-06-04T11:55:52;100474.25;;;33.56;24.21
11525;BME280;5819;49.648;8.330;2023-06-04T11:58:20;100475.34;;;33.22;24.46
11525;BME280;5819;49.648;8.330;2023-06-04T12:00:48;100478.84;;;33.03;24.23
11525;BME280;5819;49.648;8.330;2023-06-04T12:03:16;100471.72;;;32.43;24.49
11525;BME280;5819;49.648;8.330;2023-06-04T12:05:44;100471.59;;;32.90;23.82
11525;BME280;5819;49.648;8.330;2023-06-04T12:08:13;100487.38;;;32.13;25.15
11525;BME280;5819;49.648;8.330;2023-06-04T12:10:42;100482.53;;;32.49;24.81
11525;BME280;5819;49.648;8.330;2023-06-04T12:13:12;100475.44;;;32.42;24.82
11525;BME280;5819;49.648;8.330;2023-06-04T12:15:40;100484.00;;;32.04;25.30
11525;BME280;5819;49.648;8.330;2023-06-04T12:18:09;100477.94;;;32.50;25.06
11525;BME280;5819;49.648;8.330;2023-06-04T12:20:38;100471.56;;;32.58;25.63
11525;BME280;5819;49.648;8.330;2023-06-04T12:23:08;100474.94;;;32.12;26.18
11525;BME280;5819;49.648;8.330;2023-06-04T12:25:36;100486.16;;;30.98;26.18
11525;BME280;5819;49.648;8.330;2023-06-04T12:28:05;100482.59;;;31.12;26.46
11525;BME280;5819;49.648;8.330;2023-06-04T12:30:37;100487.09;;;30.90;25.88
11525;BME280;5819;49.648;8.330;2023-06-04T12:33:06;100481.94;;;31.10;26.38
11525;BME280;5819;49.648;8.330;2023-06-04T12:35:35;100485.06;;;31.69;25.57
11525;BME280;5819;49.648;8.330;2023-06-04T12:38:04;100478.13;;;31.88;24.96
11525;BME280;5819;49.648;8.330;2023-06-04T12:40:35;100481.63;;;30.41;25.53
11525;BME280;5819;49.648;8.330;2023-06-04T12:43:05;100487.44;;;31.02;26.79
11525;BME280;5819;49.648;8.330;2023-06-04T12:45:33;100490.63;;;30.34;27.25
11525;BME280;5819;49.648;8.330;2023-06-04T12:48:03;100497.47;;;30.51;26.49
11525;BME280;5819;49.648;8.330;2023-06-04T12:50:31;100498.22;;;30.09;26.59
11525;BME280;5819;49.648;8.330;2023-06-04T12:52:59;100495.63;;;30.51;26.93
11525;BME280;5819;49.648;8.330;2023-06-04T12:55:28;100490.91;;;30.39;26.52
11525;BME280;5819;49.648;8.330;2023-06-04T12:57:57;100498.31;;;29.86;27.27
11525;BME280;5819;49.648;8.330;2023-06-04T13:00:25;100504.94;;;29.09;27.82
11525;BME280;5819;49.648;8.330;2023-06-04T13:02:53;100509.72;;;29.36;27.21
11525;BME280;5819;49.648;8.330;2023-06-04T13:05:23;100504.50;;;29.20;27.64
11525;BME280;5819;49.648;8.330;2023-06-04T13:07:51;100508.56;;;28.40;27.37
11525;BME280;5819;49.648;8.330;2023-06-04T13:10:19;100501.53;;;28.38;27.08
11525;BME280;5819;49.648;8.330;2023-06-04T13:12:47;100506.09;;;28.30;28.93